Terminal Aerodrome Forecast
Issued by NWS Portland, OR

Current Version | Previous Version | Text Only | Print | Product List | Glossary On
Versions: 1 2 3 4 5 6 7 8 9 10 11 12 13 14 15 16
000
FTUS46 KPQR 250533
TAFTTD
TAF
KTTD 250533Z 2506/2606 23004KT P6SM -SHRA SCT025 BKN040 BKN060
     FM250800 VRB03KT P6SM SCT025 OVC045
     FM251900 24005KT P6SM VCSH SCT025 BKN045 BKN060
     FM260200 VRB03KT P6SM SCT050 BKN100=

USA.gov is the U.S. government's official web portal to all federal, state and local government web resources and services.